Time;durP1;ratioP1;P1;durP2;ratioP2;P2;SDS_P1;SDS_P2;PMS_P1;PMS_P2;Temp;Humidity;BMP_temperature;BMP_pressure;BME280_temperature;BME280_humidity;BME280_pressure;Samples;Min_cycle;Max_cycle;Signal;HPM_P1;HPM_P2
2023/08/13 00:02:25;;;;;;;2.50;2.30;;;19.30;99.90;;;;;;5105045;28;20536;-77
2023/08/13 00:04:52;;;;;;;5.10;2.13;;;19.20;99.90;;;;;;5090852;28;20500;-78
2023/08/13 00:07:19;;;;;;;2.50;2.30;;;19.20;99.90;;;;;;5083582;28;20519;-78
2023/08/13 00:09:46;;;;;;;3.00;1.40;;;19.10;99.90;;;;;;5087353;28;20468;-78
2023/08/13 00:12:14;;;;;;;2.53;1.83;;;19.10;99.90;;;;;;5083627;28;20524;-78
2023/08/13 00:14:41;;;;;;;5.17;2.33;;;19.10;99.90;;;;;;5086961;28;20483;-77
2023/08/13 00:17:08;;;;;;;2.10;2.00;;;19.10;99.90;;;;;;5080859;28;20485;-80
2023/08/13 00:19:35;;;;;;;2.30;2.00;;;19.20;99.90;;;;;;5082368;28;20447;-80
2023/08/13 00:22:02;;;;;;;2.00;1.77;;;19.10;99.90;;;;;;5087081;28;20482;-78
2023/08/13 00:24:29;;;;;;;2.23;1.67;;;19.10;99.90;;;;;;5086187;28;20467;-80
2023/08/13 00:26:56;;;;;;;2.03;1.57;;;19.10;99.90;;;;;;5086299;28;20453;-77
2023/08/13 00:29:24;;;;;;;2.20;1.60;;;19.10;99.90;;;;;;5087114;28;21211;-78
2023/08/13 00:31:54;;;;;;;5.17;1.40;;;19.00;99.90;;;;;;5085936;28;20491;-79
2023/08/13 00:34:21;;;;;;;1.53;1.43;;;19.00;99.90;;;;;;5074254;28;20458;-79
2023/08/13 00:36:48;;;;;;;1.80;1.70;;;19.00;99.90;;;;;;5086083;28;20448;-77
2023/08/13 00:39:15;;;;;;;1.70;1.60;;;18.90;99.90;;;;;;5085371;28;20556;-77
2023/08/13 00:41:42;;;;;;;4.30;2.00;;;18.90;99.90;;;;;;5081140;28;20579;-79
2023/08/13 00:44:09;;;;;;;1.30;1.20;;;18.90;99.90;;;;;;5085614;28;20467;-79
2023/08/13 00:46:38;;;;;;;1.90;1.50;;;18.90;99.90;;;;;;5082054;28;20466;-78
2023/08/13 00:49:05;;;;;;;1.30;1.20;;;18.80;99.90;;;;;;5084809;28;20508;-78
2023/08/13 00:51:32;;;;;;;2.03;1.70;;;18.70;99.90;;;;;;5080808;28;20540;-78
2023/08/13 00:53:59;;;;;;;1.83;1.67;;;18.70;99.90;;;;;;5080701;28;20448;-78
2023/08/13 00:56:26;;;;;;;3.07;1.43;;;18.60;99.90;;;;;;5077282;28;20501;-78
2023/08/13 00:58:53;;;;;;;2.03;1.93;;;18.60;99.90;;;;;;5073302;28;20501;-78
2023/08/13 01:01:20;;;;;;;1.47;1.37;;;18.60;99.90;;;;;;5078515;28;20611;-78
2023/08/13 01:03:48;;;;;;;2.67;1.93;;;18.60;99.90;;;;;;5084471;28;20955;-78
2023/08/13 01:06:27;;;;;;;2.97;2.07;;;18.70;99.90;;;;;;5071558;28;20441;-77
2023/08/13 01:09:03;;;;;;;4.63;1.93;;;18.70;99.90;;;;;;5088758;28;20504;-78
2023/08/13 01:11:41;;;;;;;2.20;2.10;;;18.60;99.90;;;;;;5081387;28;20957;-79
2023/08/13 01:14:18;;;;;;;1.90;1.80;;;18.60;99.90;;;;;;5076126;28;20501;-78
2023/08/13 01:16:46;;;;;;;2.00;1.90;;;18.60;99.90;;;;;;5083759;28;20544;-78
2023/08/13 01:19:15;;;;;;;4.83;1.90;;;18.60;99.90;;;;;;5089142;28;20448;-81
2023/08/13 01:21:42;;;;;;;4.40;1.50;;;18.50;99.90;;;;;;5089554;28;20988;-77
2023/08/13 01:24:10;;;;;;;2.33;1.73;;;18.40;99.90;;;;;;5089567;28;20439;-76
2023/08/13 01:26:48;;;;;;;1.50;1.40;;;18.40;99.90;;;;;;5096204;28;20468;-78
2023/08/13 01:29:21;;;;;;;2.50;2.30;;;18.40;99.90;;;;;;5098171;28;20441;-79
2023/08/13 01:31:55;;;;;;;2.80;1.77;;;18.50;99.90;;;;;;5085808;28;20468;-80
2023/08/13 01:34:22;;;;;;;2.20;1.97;;;18.60;99.90;;;;;;5090898;28;20445;-80
2023/08/13 01:36:50;;;;;;;1.20;1.10;;;18.50;99.90;;;;;;5085853;28;20785;-78
2023/08/13 01:39:18;;;;;;;1.50;1.40;;;18.50;99.90;;;;;;5085906;28;20891;-78
2023/08/13 01:41:54;;;;;;;2.43;1.70;;;18.50;99.90;;;;;;5089403;28;20540;-77
2023/08/13 01:44:21;;;;;;;2.83;2.20;;;18.50;99.90;;;;;;5076966;28;20479;-78
2023/08/13 01:46:48;;;;;;;2.17;1.60;;;18.60;99.90;;;;;;5086330;28;20493;-78
2023/08/13 01:49:15;;;;;;;11.50;1.87;;;18.60;99.90;;;;;;5087635;28;20542;-79
2023/08/13 01:51:42;;;;;;;2.00;1.90;;;18.60;99.90;;;;;;5088813;28;20883;-78
2023/08/13 01:54:09;;;;;;;2.27;1.43;;;18.60;99.90;;;;;;5087442;28;20463;-79
2023/08/13 01:56:37;;;;;;;1.60;1.50;;;18.60;99.90;;;;;;5088852;28;20520;-81
2023/08/13 01:59:04;;;;;;;2.00;1.80;;;18.60;99.90;;;;;;5088535;28;20478;-78
2023/08/13 02:01:31;;;;;;;1.73;1.50;;;18.60;99.90;;;;;;5049824;28;1129253;-78
2023/08/13 02:03:59;;;;;;;1.67;1.57;;;18.60;99.90;;;;;;5088185;28;20566;-78
2023/08/13 02:06:26;;;;;;;2.70;1.33;;;18.60;99.90;;;;;;5084367;28;20465;-78
2023/08/13 02:08:53;;;;;;;2.00;1.90;;;18.50;99.90;;;;;;5089278;28;20452;-78
2023/08/13 02:11:20;;;;;;;1.63;1.53;;;18.50;99.90;;;;;;5090183;28;20515;-81
2023/08/13 02:13:49;;;;;;;1.47;1.17;;;18.40;99.90;;;;;;5089206;28;20452;-79
2023/08/13 02:16:16;;;;;;;3.30;1.60;;;18.30;99.90;;;;;;5083383;28;20461;-81
2023/08/13 02:18:43;;;;;;;1.57;1.47;;;18.30;99.90;;;;;;5086948;28;20522;-80
2023/08/13 02:21:10;;;;;;;1.50;1.40;;;18.30;99.90;;;;;;5088721;28;20500;-77
2023/08/13 02:23:37;;;;;;;1.40;1.30;;;18.30;99.90;;;;;;5089591;28;20834;-78
2023/08/13 02:26:03;;;;;;;1.57;1.40;;;18.40;99.90;;;;;;5089369;28;20441;-78
2023/08/13 02:28:30;;;;;;;1.60;1.30;;;18.40;99.90;;;;;;5090653;28;20453;-77
2023/08/13 02:30:59;;;;;;;2.37;2.17;;;18.40;99.90;;;;;;5088260;28;20499;-78
2023/08/13 02:33:26;;;;;;;1.50;1.40;;;18.40;99.90;;;;;;5090177;28;20482;-78
2023/08/13 02:35:52;;;;;;;1.73;1.63;;;18.30;99.90;;;;;;5089093;28;20494;-79
2023/08/13 02:38:19;;;;;;;2.27;1.97;;;18.30;99.90;;;;;;5087624;28;20993;-79
2023/08/13 02:40:46;;;;;;;1.97;1.77;;;18.20;99.90;;;;;;5088985;28;20486;-79
2023/08/13 02:43:13;;;;;;;1.93;1.70;;;18.20;99.90;;;;;;5097788;28;20513;-77
2023/08/13 02:45:40;;;;;;;1.93;1.83;;;18.20;99.90;;;;;;5097959;28;20461;-75
2023/08/13 02:48:09;;;;;;;1.70;1.60;;;18.20;99.90;;;;;;5098451;28;20468;-79
2023/08/13 02:50:36;;;;;;;2.57;1.60;;;18.20;99.90;;;;;;5082545;28;20451;-78
2023/08/13 02:53:03;;;;;;;3.43;1.50;;;18.20;99.90;;;;;;5091103;28;20496;-77
2023/08/13 02:55:30;;;;;;;5.63;2.70;;;18.20;99.90;;;;;;5089577;28;20446;-78
2023/08/13 02:57:57;;;;;;;1.53;1.30;;;18.20;99.90;;;;;;5089600;28;20517;-78
2023/08/13 03:00:24;;;;;;;1.73;1.20;;;18.20;99.90;;;;;;5082332;28;21009;-80
2023/08/13 03:02:51;;;;;;;1.93;1.83;;;18.20;99.90;;;;;;5089062;28;20886;-78
2023/08/13 03:05:19;;;;;;;2.03;1.90;;;18.20;99.90;;;;;;5089006;28;21022;-78
2023/08/13 03:07:46;;;;;;;1.20;1.20;;;18.20;99.90;;;;;;5077922;28;20466;-81
2023/08/13 03:10:13;;;;;;;3.37;1.53;;;18.10;99.90;;;;;;5089223;28;20466;-78
2023/08/13 03:12:40;;;;;;;2.93;2.53;;;18.10;99.90;;;;;;5085448;28;20533;-79
2023/08/13 03:15:08;;;;;;;4.63;2.27;;;18.20;99.90;;;;;;5086210;28;20537;-80
2023/08/13 03:17:35;;;;;;;1.63;1.53;;;18.20;99.90;;;;;;5086058;28;20568;-81
2023/08/13 03:20:02;;;;;;;4.53;1.50;;;18.20;99.90;;;;;;5087758;28;20436;-78
2023/08/13 03:22:31;;;;;;;1.87;1.77;;;18.30;99.90;;;;;;5087327;28;20483;-78
2023/08/13 03:24:58;;;;;;;1.50;1.40;;;18.20;99.90;;;;;;5088441;28;20445;-79
2023/08/13 03:27:24;;;;;;;1.33;1.23;;;18.20;99.90;;;;;;5085124;28;20467;-78
2023/08/13 03:29:51;;;;;;;2.17;1.50;;;18.30;99.90;;;;;;5085250;28;20459;-81
2023/08/13 03:32:18;;;;;;;1.40;1.30;;;18.20;99.90;;;;;;5086514;28;20796;-78
2023/08/13 03:34:45;;;;;;;1.83;1.67;;;18.20;99.90;;;;;;5088686;28;20454;-78
2023/08/13 03:37:12;;;;;;;1.30;1.20;;;18.20;99.90;;;;;;5087429;28;20907;-81
2023/08/13 03:39:40;;;;;;;2.10;1.90;;;18.10;99.90;;;;;;5083073;28;20473;-78
2023/08/13 03:42:07;;;;;;;1.70;1.60;;;18.00;99.90;;;;;;5084286;28;20542;-78
2023/08/13 03:44:34;;;;;;;1.67;1.57;;;18.00;99.90;;;;;;5088801;28;20444;-78
2023/08/13 03:47:01;;;;;;;2.10;1.93;;;18.00;99.90;;;;;;5082804;28;20455;-78
2023/08/13 03:49:28;;;;;;;1.70;1.60;;;18.00;99.90;;;;;;5081707;28;21080;-79
2023/08/13 03:51:55;;;;;;;2.40;2.30;;;17.90;99.90;;;;;;5086347;28;20444;-79
2023/08/13 03:54:22;;;;;;;4.40;1.83;;;17.90;99.90;;;;;;5088142;28;21027;-81
2023/08/13 03:56:50;;;;;;;2.37;2.10;;;17.90;99.90;;;;;;5087276;28;20492;-78
2023/08/13 03:59:17;;;;;;;2.07;1.97;;;17.90;99.90;;;;;;5085757;28;20520;-77
2023/08/13 04:01:45;;;;;;;1.67;1.57;;;18.00;99.90;;;;;;5086533;28;20495;-79
2023/08/13 04:04:11;;;;;;;3.20;3.00;;;18.10;99.90;;;;;;5086048;28;20568;-79
2023/08/13 04:06:39;;;;;;;2.50;1.70;;;18.10;99.90;;;;;;5077851;28;20464;-81
2023/08/13 04:09:06;;;;;;;2.03;1.60;;;18.30;99.90;;;;;;5095201;28;20451;-79
2023/08/13 04:11:33;;;;;;;3.00;2.10;;;18.30;99.90;;;;;;5100649;28;20481;-77
2023/08/13 04:14:01;;;;;;;2.13;1.90;;;18.30;99.90;;;;;;5104968;28;20493;-76
2023/08/13 04:16:28;;;;;;;2.13;1.80;;;18.30;99.90;;;;;;5094091;28;20440;-78
2023/08/13 04:18:55;;;;;;;1.83;1.60;;;18.40;99.90;;;;;;5092197;28;20444;-78
2023/08/13 04:21:24;;;;;;;2.70;1.53;;;18.40;99.90;;;;;;5083978;28;20463;-78
2023/08/13 04:23:54;;;;;;;2.50;2.30;;;18.60;99.90;;;;;;5086277;28;20457;-78
2023/08/13 04:26:21;;;;;;;2.57;1.60;;;18.70;99.90;;;;;;5087332;28;20492;-80
2023/08/13 04:28:48;;;;;;;2.23;2.13;;;18.90;99.90;;;;;;5087425;28;20440;-79
2023/08/13 04:31:18;;;;;;;2.50;2.30;;;19.00;99.90;;;;;;5085207;28;21033;-78
2023/08/13 04:33:45;;;;;;;1.50;1.40;;;19.20;99.90;;;;;;5086529;28;20443;-81
2023/08/13 04:36:12;;;;;;;2.13;1.37;;;19.20;99.90;;;;;;5085085;28;20463;-79
2023/08/13 04:38:39;;;;;;;3.33;1.77;;;19.40;99.90;;;;;;5084246;28;20468;-78
2023/08/13 04:41:06;;;;;;;1.37;1.30;;;19.50;99.90;;;;;;5085582;28;20443;-77
2023/08/13 04:43:33;;;;;;;2.70;2.23;;;19.60;99.90;;;;;;5086257;28;20587;-81
2023/08/13 04:46:00;;;;;;;2.63;2.20;;;19.60;99.90;;;;;;5081375;28;20991;-81
2023/08/13 04:48:44;;;;;;;6.77;1.43;;;19.60;99.90;;;;;;5086363;28;20463;-78
2023/08/13 04:51:11;;;;;;;1.20;1.10;;;19.60;99.90;;;;;;5084681;28;20551;-78
2023/08/13 04:53:38;;;;;;;1.93;1.70;;;19.50;99.90;;;;;;5087242;28;20457;-79
2023/08/13 04:56:06;;;;;;;4.53;2.10;;;19.50;99.90;;;;;;5085595;28;20939;-79
2023/08/13 04:58:33;;;;;;;1.90;1.80;;;19.40;99.90;;;;;;5079413;28;21062;-80
2023/08/13 05:01:00;;;;;;;1.73;1.63;;;19.40;99.90;;;;;;5086520;28;20501;-80
2023/08/13 05:03:27;;;;;;;2.77;2.37;;;19.50;99.90;;;;;;5086838;28;20541;-80
2023/08/13 05:05:55;;;;;;;1.60;1.50;;;19.50;99.90;;;;;;5081112;28;20470;-81
2023/08/13 05:08:22;;;;;;;1.60;1.50;;;19.60;99.90;;;;;;5071002;28;20503;-87
2023/08/13 05:10:50;;;;;;;1.50;1.40;;;19.70;99.90;;;;;;5068063;28;20949;-79
2023/08/13 05:13:17;;;;;;;3.83;1.57;;;19.70;99.90;;;;;;5076668;28;20449;-80
2023/08/13 05:15:44;;;;;;;1.67;1.57;;;19.80;99.90;;;;;;5077798;28;20442;-80
2023/08/13 05:18:11;;;;;;;2.17;1.83;;;20.00;99.90;;;;;;5079644;28;20836;-79
2023/08/13 05:20:38;;;;;;;2.00;1.80;;;20.00;99.90;;;;;;5084629;28;20442;-79
2023/08/13 05:23:07;;;;;;;4.53;1.67;;;20.00;99.90;;;;;;5075511;28;20537;-80
2023/08/13 05:25:37;;;;;;;2.13;2.00;;;20.00;99.90;;;;;;5081432;28;20475;-83
2023/08/13 05:28:06;;;;;;;1.50;1.20;;;19.80;99.90;;;;;;5081312;28;20453;-83
2023/08/13 05:30:33;;;;;;;4.27;1.60;;;19.90;99.90;;;;;;5078100;28;20447;-80
2023/08/13 05:33:00;;;;;;;1.37;1.27;;;19.90;99.90;;;;;;5083205;28;20443;-80
2023/08/13 05:35:27;;;;;;;1.57;1.47;;;19.90;99.90;;;;;;5090683;28;20463;-79
2023/08/13 05:37:54;;;;;;;1.93;1.80;;;20.00;99.90;;;;;;5098443;28;20486;-78
2023/08/13 05:40:22;;;;;;;2.53;1.70;;;20.20;99.90;;;;;;5085849;28;20447;-78
2023/08/13 05:42:50;;;;;;;2.30;1.50;;;20.40;99.90;;;;;;5079885;28;20491;-81
2023/08/13 05:45:17;;;;;;;3.60;1.40;;;20.70;99.90;;;;;;5082945;28;20455;-78
2023/08/13 05:47:44;;;;;;;2.43;1.77;;;21.00;99.90;;;;;;5066572;28;20447;-78
2023/08/13 05:50:12;;;;;;;1.33;1.23;;;21.30;99.90;;;;;;5073784;28;20458;-77
2023/08/13 05:52:39;;;;;;;1.87;1.77;;;21.50;99.90;;;;;;5086043;28;20508;-78
2023/08/13 05:55:07;;;;;;;1.73;1.63;;;21.60;99.90;;;;;;5085529;28;20455;-78
2023/08/13 05:57:35;;;;;;;5.63;2.43;;;21.80;99.90;;;;;;5081923;28;20941;-78
2023/08/13 06:00:05;;;;;;;1.13;1.03;;;21.90;99.90;;;;;;5087105;28;20510;-81
2023/08/13 06:02:32;;;;;;;1.60;1.40;;;22.00;99.90;;;;;;5085161;28;20493;-77
2023/08/13 06:04:59;;;;;;;1.73;1.63;;;21.90;99.90;;;;;;5076466;28;20464;-77
2023/08/13 06:07:28;;;;;;;1.80;1.70;;;22.00;99.90;;;;;;5077596;28;20901;-78
2023/08/13 06:09:55;;;;;;;1.57;1.47;;;22.00;99.90;;;;;;5080582;28;20946;-77
2023/08/13 06:12:22;;;;;;;1.73;1.30;;;22.20;99.90;;;;;;5079034;28;20507;-77
2023/08/13 06:14:50;;;;;;;4.07;2.50;;;22.30;99.90;;;;;;5073453;28;20467;-77
2023/08/13 06:17:17;;;;;;;3.50;2.27;;;22.50;99.90;;;;;;5071014;28;20498;-78
2023/08/13 06:19:44;;;;;;;2.60;2.27;;;22.50;99.90;;;;;;5076846;28;20499;-81
2023/08/13 06:22:11;;;;;;;3.53;1.87;;;22.50;99.90;;;;;;5074755;28;20448;-78
2023/08/13 06:24:39;;;;;;;1.67;1.33;;;22.70;99.90;;;;;;5078422;28;20468;-80
2023/08/13 06:27:06;;;;;;;1.43;1.10;;;22.80;99.90;;;;;;5080558;28;20837;-78
2023/08/13 06:29:33;;;;;;;0.90;0.90;;;22.90;99.90;;;;;;5074174;28;20520;-78
2023/08/13 06:32:02;;;;;;;1.83;1.73;;;22.90;99.90;;;;;;5076980;28;20846;-78
2023/08/13 06:34:29;;;;;;;2.43;1.90;;;23.10;99.90;;;;;;5068850;28;20444;-78
2023/08/13 06:36:57;;;;;;;1.20;1.10;;;23.10;99.90;;;;;;5071969;28;20504;-80
2023/08/13 06:39:24;;;;;;;2.20;1.93;;;23.40;99.90;;;;;;5082055;28;20435;-78
2023/08/13 06:41:51;;;;;;;2.07;1.97;;;23.40;99.90;;;;;;5077388;28;20530;-79
2023/08/13 06:44:19;;;;;;;1.87;1.60;;;23.60;99.90;;;;;;5071171;28;20483;-79
2023/08/13 06:46:46;;;;;;;1.77;1.20;;;23.60;99.90;;;;;;5067629;28;20539;-79
2023/08/13 06:49:15;;;;;;;2.30;1.90;;;23.90;99.90;;;;;;5077855;28;20451;-78
2023/08/13 06:51:43;;;;;;;2.23;1.70;;;24.00;99.90;;;;;;5073616;28;20442;-80
2023/08/13 06:54:10;;;;;;;2.40;1.23;;;24.30;99.90;;;;;;5074171;28;20459;-80
2023/08/13 06:56:37;;;;;;;1.40;1.30;;;24.30;99.90;;;;;;5082769;28;21084;-79
2023/08/13 06:59:05;;;;;;;1.70;1.60;;;24.40;99.90;;;;;;5079892;28;20747;-80
2023/08/13 07:01:32;;;;;;;1.70;1.60;;;24.30;99.90;;;;;;5086503;28;20470;-79
2023/08/13 07:04:02;;;;;;;2.37;2.27;;;24.30;99.90;;;;;;5085525;28;20505;-78
2023/08/13 07:06:31;;;;;;;2.27;2.07;;;24.40;99.90;;;;;;5075049;28;20532;-79
2023/08/13 07:08:58;;;;;;;1.40;1.10;;;24.50;99.90;;;;;;5085085;28;20454;-80
2023/08/13 07:11:25;;;;;;;1.60;1.00;;;24.80;99.90;;;;;;5087659;28;20443;-78
2023/08/13 07:13:52;;;;;;;1.43;1.33;;;25.00;99.90;;;;;;5087335;28;20822;-79
2023/08/13 07:16:19;;;;;;;1.67;1.27;;;24.90;99.90;;;;;;5085429;28;20463;-80
2023/08/13 07:18:46;;;;;;;1.60;1.50;;;24.70;99.90;;;;;;5088644;28;20500;-78
2023/08/13 07:21:13;;;;;;;1.50;1.30;;;24.80;99.90;;;;;;5087702;28;20504;-78
2023/08/13 07:23:42;;;;;;;1.70;1.60;;;25.00;99.90;;;;;;5081598;28;20543;-79
2023/08/13 07:26:09;;;;;;;1.70;1.60;;;25.00;99.90;;;;;;5085484;28;20533;-79
2023/08/13 07:28:39;;;;;;;1.60;1.50;;;25.10;99.90;;;;;;5087458;28;20447;-81
2023/08/13 07:31:07;;;;;;;2.60;1.30;;;25.00;99.90;;;;;;5089226;28;20457;-77
2023/08/13 07:33:34;;;;;;;1.30;1.20;;;25.20;99.90;;;;;;5086823;28;20463;-83
2023/08/13 07:36:02;;;;;;;1.77;1.67;;;25.10;99.90;;;;;;5079594;28;20894;-79
2023/08/13 07:38:29;;;;;;;1.37;1.27;;;25.30;99.90;;;;;;5079432;28;20485;-79
2023/08/13 07:40:58;;;;;;;1.40;1.30;;;25.50;99.90;;;;;;5083953;28;20442;-79
2023/08/13 07:43:25;;;;;;;1.20;1.10;;;25.60;99.90;;;;;;5077485;28;20842;-78
2023/08/13 07:45:53;;;;;;;2.27;1.63;;;25.80;99.90;;;;;;5072718;28;20524;-79
2023/08/13 07:48:20;;;;;;;3.10;1.60;;;25.90;99.90;;;;;;5077155;28;20470;-81
2023/08/13 07:50:47;;;;;;;1.83;1.73;;;25.80;99.90;;;;;;5073667;28;20438;-78
2023/08/13 07:53:14;;;;;;;6.30;1.50;;;25.90;99.90;;;;;;5076958;28;20473;-78
2023/08/13 07:55:41;;;;;;;2.23;2.03;;;25.80;99.90;;;;;;5071992;28;20518;-81
2023/08/13 07:58:09;;;;;;;1.83;1.73;;;25.80;99.90;;;;;;5079038;28;20439;-78
2023/08/13 08:00:36;;;;;;;2.03;1.17;;;25.70;99.90;;;;;;5079356;28;20486;-79
2023/08/13 08:03:03;;;;;;;2.37;2.17;;;25.60;99.90;;;;;;5070892;28;21030;-81
2023/08/13 08:05:31;;;;;;;1.50;1.40;;;25.70;99.90;;;;;;5071586;28;20496;-80
2023/08/13 08:07:58;;;;;;;1.57;1.47;;;25.60;99.90;;;;;;5079207;28;20455;-80
2023/08/13 08:10:25;;;;;;;1.87;1.70;;;25.80;99.90;;;;;;5086978;28;20537;-79
2023/08/13 08:12:52;;;;;;;1.70;1.60;;;25.80;99.90;;;;;;5081915;28;20522;-81
2023/08/13 08:15:21;;;;;;;2.80;2.60;;;25.90;99.90;;;;;;5077380;28;20938;-79
2023/08/13 08:17:48;;;;;;;2.20;2.00;;;25.80;99.90;;;;;;5084583;28;20470;-81
2023/08/13 08:20:15;;;;;;;1.63;1.53;;;25.80;99.90;;;;;;5087841;28;20505;-79
2023/08/13 08:22:42;;;;;;;2.33;1.83;;;25.70;99.90;;;;;;5092306;28;20866;-78
2023/08/13 08:25:10;;;;;;;2.03;1.93;;;25.60;99.90;;;;;;5097026;28;20496;-78
2023/08/13 08:27:37;;;;;;;3.90;2.37;;;25.90;99.90;;;;;;5096299;28;20447;-79
2023/08/13 08:30:05;;;;;;;4.40;2.40;;;26.10;99.90;;;;;;5082166;28;20458;-79
2023/08/13 08:32:35;;;;;;;1.93;1.63;;;25.80;99.90;;;;;;5097569;28;20443;-79
2023/08/13 08:35:03;;;;;;;1.50;1.40;;;25.80;99.90;;;;;;5091371;28;20471;-81
2023/08/13 08:37:31;;;;;;;2.80;2.60;;;25.80;99.90;;;;;;5086814;28;20554;-80
2023/08/13 08:39:58;;;;;;;2.27;1.83;;;25.70;99.90;;;;;;5087063;28;20509;-78
2023/08/13 08:42:26;;;;;;;2.23;2.13;;;25.80;99.90;;;;;;5086041;28;20955;-79
2023/08/13 08:44:53;;;;;;;3.70;1.60;;;26.00;99.90;;;;;;5083453;28;20575;-79
2023/08/13 08:47:22;;;;;;;2.20;2.10;;;26.20;99.90;;;;;;5078265;28;20484;-79
2023/08/13 08:49:52;;;;;;;1.70;1.60;;;26.40;99.90;;;;;;5084742;28;20460;-80
2023/08/13 08:52:19;;;;;;;2.20;2.00;;;26.40;99.90;;;;;;5086647;28;20475;-79
2023/08/13 08:54:48;;;;;;;3.77;1.70;;;26.40;99.90;;;;;;5078039;28;20895;-79
2023/08/13 08:57:15;;;;;;;2.03;1.83;;;26.60;99.90;;;;;;5086399;28;20496;-78
2023/08/13 08:59:42;;;;;;;1.50;1.40;;;26.50;99.90;;;;;;5084600;28;20491;-78
2023/08/13 09:02:12;;;;;;;1.80;1.70;;;26.60;99.90;;;;;;5085539;28;20547;-79
2023/08/13 09:04:39;;;;;;;1.63;1.53;;;27.00;99.90;;;;;;5084819;28;20517;-79
2023/08/13 09:07:07;;;;;;;2.67;2.57;;;26.80;99.90;;;;;;5079744;28;20463;-79
2023/08/13 09:09:34;;;;;;;2.47;2.07;;;26.90;99.90;;;;;;5086124;28;20437;-79
2023/08/13 09:12:02;;;;;;;1.00;0.97;;;27.30;99.90;;;;;;5085697;28;20503;-81
2023/08/13 09:14:30;;;;;;;1.90;1.67;;;27.20;99.90;;;;;;5085668;28;20446;-79
2023/08/13 09:16:58;;;;;;;2.40;1.97;;;27.10;99.90;;;;;;5075219;28;20447;-78
2023/08/13 09:19:26;;;;;;;1.43;1.33;;;27.30;99.90;;;;;;5086196;28;20488;-82
2023/08/13 09:21:55;;;;;;;1.37;1.27;;;27.40;99.90;;;;;;5085838;28;20482;-81
2023/08/13 09:24:33;;;;;;;1.70;1.60;;;27.30;99.90;;;;;;5083374;28;20923;-79
2023/08/13 09:27:01;;;;;;;4.00;1.57;;;27.10;99.90;;;;;;5084816;28;20500;-81
2023/08/13 09:29:30;;;;;;;1.83;1.73;;;27.10;99.90;;;;;;5088256;28;20443;-81
2023/08/13 09:31:57;;;;;;;1.73;1.30;;;27.10;99.90;;;;;;5085372;28;20471;-79
2023/08/13 09:34:25;;;;;;;2.10;1.90;;;27.10;99.90;;;;;;5077415;28;20443;-81
2023/08/13 09:36:53;;;;;;;1.20;1.10;;;27.50;99.90;;;;;;5075802;28;20440;-79
2023/08/13 09:39:21;;;;;;;1.60;1.37;;;27.70;99.90;;;;;;5083209;28;20999;-80
2023/08/13 09:41:51;;;;;;;2.30;1.60;;;28.00;99.90;;;;;;5073439;28;20487;-79
2023/08/13 09:44:20;;;;;;;2.00;1.90;;;27.80;99.90;;;;;;5079219;28;21270;-81
2023/08/13 09:46:52;;;;;;;1.40;1.30;;;27.90;99.90;;;;;;5076857;28;20530;-79
2023/08/13 09:49:19;;;;;;;1.80;1.70;;;28.10;99.90;;;;;;5086057;28;20469;-79
2023/08/13 09:51:48;;;;;;;1.30;1.20;;;28.20;99.90;;;;;;5099964;28;20488;-80
2023/08/13 09:54:25;;;;;;;2.10;1.37;;;28.50;99.90;;;;;;5091131;28;20473;-78
2023/08/13 09:56:59;;;;;;;1.57;1.47;;;28.60;99.90;;;;;;5087026;28;20435;-80
2023/08/13 09:59:26;;;;;;;1.77;1.37;;;28.80;99.90;;;;;;5073442;28;20575;-81
2023/08/13 10:01:54;;;;;;;1.60;1.50;;;29.00;99.90;;;;;;5084116;28;20534;-78
2023/08/13 10:04:23;;;;;;;3.30;1.70;;;29.10;99.90;;;;;;5071278;28;20491;-80
2023/08/13 10:06:52;;;;;;;4.07;2.13;;;29.20;99.90;;;;;;5088108;28;20536;-79
2023/08/13 10:09:20;;;;;;;2.00;1.80;;;29.30;99.90;;;;;;5089112;28;20477;-81
2023/08/13 10:11:47;;;;;;;2.17;1.97;;;29.50;99.90;;;;;;5087597;28;20443;-80
2023/08/13 10:14:16;;;;;;;1.50;1.23;;;28.90;98.90;;;;;;5085461;28;20537;-79
2023/08/13 10:16:43;;;;;;;1.37;1.27;;;28.60;99.40;;;;;;5087308;28;20466;-79
2023/08/13 10:19:11;;;;;;;1.70;1.60;;;28.60;99.90;;;;;;5077404;28;20452;-79
2023/08/13 10:21:39;;;;;;;1.60;1.50;;;28.50;99.90;;;;;;5089111;28;20500;-79
2023/08/13 10:24:12;;;;;;;1.70;1.60;;;28.60;99.90;;;;;;5089502;28;20532;-81
2023/08/13 10:26:42;;;;;;;2.30;1.53;;;28.90;99.90;;;;;;5087419;28;20439;-80
2023/08/13 10:29:18;;;;;;;2.17;1.93;;;29.00;99.90;;;;;;5084757;28;20536;-81
2023/08/13 10:31:49;;;;;;;2.27;2.10;;;29.10;99.90;;;;;;5087071;28;20470;-79
2023/08/13 10:34:18;;;;;;;1.63;1.30;;;29.30;99.80;;;;;;5082583;28;20455;-79
2023/08/13 10:36:49;;;;;;;1.50;1.40;;;29.30;99.90;;;;;;5089632;28;20454;-79
2023/08/13 10:39:33;;;;;;;2.23;1.90;;;29.20;99.90;;;;;;5085215;28;20707;-80
2023/08/13 10:42:01;;;;;;;3.63;1.57;;;29.30;99.90;;;;;;5088631;28;20466;-79
2023/08/13 10:44:31;;;;;;;1.83;1.73;;;29.60;99.90;;;;;;5088499;28;20536;-79
2023/08/13 10:46:58;;;;;;;4.40;2.23;;;29.60;98.90;;;;;;5081093;28;20833;-79
2023/08/13 10:49:27;;;;;;;4.10;2.33;;;29.50;97.60;;;;;;5089269;28;20489;-79
2023/08/13 10:51:55;;;;;;;1.87;1.50;;;29.30;98.00;;;;;;5087930;28;20510;-79
2023/08/13 10:54:26;;;;;;;2.57;2.37;;;29.50;98.50;;;;;;5081381;28;20474;-79
2023/08/13 10:56:59;;;;;;;3.83;1.80;;;29.50;96.50;;;;;;5088214;28;20451;-79
2023/08/13 10:59:32;;;;;;;2.13;1.90;;;29.60;96.20;;;;;;5088334;28;20463;-79
2023/08/13 11:02:15;;;;;;;1.93;1.30;;;29.60;98.10;;;;;;5079735;28;20463;-81
2023/08/13 11:04:43;;;;;;;1.87;1.40;;;29.80;95.60;;;;;;5088839;28;20523;-81
2023/08/13 11:07:11;;;;;;;3.00;1.40;;;29.80;96.30;;;;;;5077427;28;20995;-81
2023/08/13 11:09:38;;;;;;;1.67;1.57;;;29.90;95.20;;;;;;5083022;28;20451;-79
2023/08/13 11:12:06;;;;;;;1.67;1.57;;;29.70;95.00;;;;;;5086551;28;20489;-80
2023/08/13 11:14:35;;;;;;;3.30;1.77;;;29.90;97.40;;;;;;5090980;28;20463;-79
2023/08/13 11:17:05;;;;;;;1.83;1.70;;;30.10;93.90;;;;;;5092286;28;20496;-79
2023/08/13 11:19:32;;;;;;;1.73;1.50;;;29.90;95.60;;;;;;5083718;28;20463;-81
2023/08/13 11:22:01;;;;;;;1.97;1.57;;;29.90;96.00;;;;;;5089400;28;20461;-79
2023/08/13 11:24:31;;;;;;;1.53;1.43;;;30.00;95.30;;;;;;5084606;28;20612;-78
2023/08/13 11:26:58;;;;;;;1.60;1.50;;;30.30;94.60;;;;;;5079703;28;20531;-81
2023/08/13 11:29:26;;;;;;;6.57;2.13;;;30.20;96.20;;;;;;5076672;28;20443;-80
2023/08/13 11:31:54;;;;;;;2.13;1.33;;;30.00;96.20;;;;;;5079017;28;20620;-78
2023/08/13 11:34:21;;;;;;;2.13;1.90;;;29.90;94.20;;;;;;5080787;28;20486;-80
2023/08/13 11:36:50;;;;;;;2.03;1.60;;;30.00;93.80;;;;;;5080058;28;20535;-79
2023/08/13 11:39:18;;;;;;;2.10;1.83;;;30.10;94.90;;;;;;5079714;28;20529;-79
2023/08/13 11:41:46;;;;;;;3.23;1.40;;;30.50;95.40;;;;;;5077116;28;21018;-80
2023/08/13 11:44:13;;;;;;;3.10;1.87;;;30.40;94.20;;;;;;5077894;28;20569;-80
2023/08/13 11:46:56;;;;;;;1.63;1.53;;;30.10;94.00;;;;;;5082828;28;20557;-79
2023/08/13 11:49:23;;;;;;;1.67;1.57;;;30.30;94.10;;;;;;5085723;28;20983;-80
2023/08/13 11:51:51;;;;;;;1.63;1.53;;;30.50;94.30;;;;;;5078437;28;20963;-81
2023/08/13 11:54:19;;;;;;;2.63;2.20;;;30.50;93.90;;;;;;5080404;28;20530;-79
2023/08/13 11:56:46;;;;;;;3.67;1.50;;;30.40;96.40;;;;;;5077947;28;20539;-79
2023/08/13 11:59:13;;;;;;;2.00;1.90;;;30.40;94.40;;;;;;5078839;28;20538;-79
2023/08/13 12:01:40;;;;;;;2.43;2.23;;;30.20;94.50;;;;;;5081676;28;20514;-80
2023/08/13 12:04:09;;;;;;;2.40;1.60;;;30.30;94.60;;;;;;5075107;28;21050;-79
2023/08/13 12:06:36;;;;;;;1.70;1.60;;;30.20;94.00;;;;;;5083876;28;20503;-79
2023/08/13 12:09:04;;;;;;;2.97;2.03;;;30.20;93.10;;;;;;5087240;28;20539;-79
2023/08/13 12:11:31;;;;;;;1.70;1.40;;;30.30;94.30;;;;;;5085255;28;20995;-78
2023/08/13 12:14:06;;;;;;;1.40;1.30;;;30.50;94.90;;;;;;5086294;28;20531;-79
2023/08/13 12:16:33;;;;;;;1.20;1.20;;;30.70;94.60;;;;;;5087264;28;20521;-79
2023/08/13 12:19:03;;;;;;;2.50;2.03;;;30.40;93.90;;;;;;5083833;28;20494;-81
2023/08/13 12:21:31;;;;;;;4.17;1.97;;;30.30;94.50;;;;;;5083588;28;20439;-79
2023/08/13 12:23:58;;;;;;;1.30;1.20;;;30.80;93.30;;;;;;5086066;28;20475;-79
2023/08/13 12:26:26;;;;;;;2.60;1.47;;;30.80;93.80;;;;;;5085677;28;20515;-79
2023/08/13 12:28:53;;;;;;;1.93;1.80;;;30.80;94.40;;;;;;5085094;28;20855;-78
2023/08/13 12:31:21;;;;;;;1.53;1.43;;;31.00;95.00;;;;;;5085807;28;20958;-79
2023/08/13 12:33:48;;;;;;;1.83;1.33;;;31.10;95.70;;;;;;5087885;28;20454;-79
2023/08/13 12:36:15;;;;;;;1.90;1.80;;;31.00;93.80;;;;;;5091168;28;20863;-78
2023/08/13 12:38:43;;;;;;;3.70;1.87;;;30.80;95.50;;;;;;5099254;28;20500;-80
2023/08/13 12:41:11;;;;;;;1.67;1.57;;;31.10;95.80;;;;;;5091905;28;20492;-80
2023/08/13 12:43:39;;;;;;;1.90;1.70;;;31.30;92.70;;;;;;5085429;28;20463;-82
2023/08/13 12:46:06;;;;;;;2.90;1.80;;;31.20;91.70;;;;;;5081799;28;20514;-79
2023/08/13 12:48:35;;;;;;;1.60;1.50;;;31.30;93.10;;;;;;5082361;28;20443;-78
2023/08/13 12:51:03;;;;;;;3.43;2.17;;;31.10;93.10;;;;;;5082833;28;20557;-79